Main page
METAR-TAF:

METAR-TAF

Airports :

Bobo-Dioulasso, Burkina Faso

Bobo Dioulasso Airport

latitude: 11-10N, longitude: 004-19W, elevation: 460 m

Current weather observation

The report was made 1 hour and 54 minutes ago, at 06:00 UTC
Wind 10 kt from the South/Southwest
Temperature 23°C
Humidity 89%
Pressure 1011 hPa
Visibility 10 km or more
Few clouds at a height of 1600 ft

METAR: DFOO 260600Z 20010KT 9999 FEW016 23/21 Q1011

Time: 07:54 (07:54 UTC)

Forecast

The report was made 2 hours and 54 minutes ago, at 05:00 UTC
Forecast valid from 26 at 06 UTC to 27 at 06 UTC
Wind 10 kt from the South/Southwest
Visibility 10 km or more
Few clouds at a height of 2000 ft
Temporary
from 26 at 15 UTC to 26 at 24 UTC
Few clouds at a height of 2000 ft
Few clouds at a height of 3300 ft, Cumulonimbus.
thunderstorm

TAF: DFOO 260500Z 2606/2706 20010KT 9999 FEW020 TEMPO 2615/2624 TS FEW020 FEW033CB

Weather observations and forecasts of more than 4000 airports (METAR and TAF reports).

The available stations are represented by yellow and red dots on the map.

Hover mouse over dot to see the name of the station.

Then click to see weather observations and forecasts.

To change the map : click on the green buttons with a black cross to zoom in, on the green button with a dash to zoom out, or on the green arrows for adjacent maps.


METAR-TAF: